UAL685 KIAH-KDTW
Flight info
| Callsign | UAL685 |
|---|---|
| Flight time | 2h 15m |
| Altitude | 35000 |
| Route | INDIE8 TPAKK LIT J131 PXV WWODD HANBL3 |
| Aircraft | B739/M-SDE2E3FGHIRWXY/LB1 |
Departure
| Time | 2026-05-01 10:15 |
|---|---|
| Airport | George Bush Intercontinental Airport (KIAH) |
Arrival
| Time | 2026-05-01 12:30 |
|---|---|
| Airport | Detroit Metropolitan Wayne County Airport (KDTW) |
| Time | Latitude | Longitude | Altitude | Speed | Heading |
|---|---|---|---|---|---|
| 2026-05-01 09:53 | 29.98467 | -95.33582 | 134 ft | 0 kts | 90° |
| 2026-05-01 10:04 | 29.98467 | -95.33592 | 106 ft | 4 kts | 93° |
| 2026-05-01 10:04 | 29.98473 | -95.33620 | 41 ft | 4 kts | 126° |
| 2026-05-01 10:04 | 29.98488 | -95.33633 | 103 ft | 4 kts | 193° |
| 2026-05-01 10:05 | 29.98497 | -95.33628 | 105 ft | 1 kts | 219° |
| 2026-05-01 10:05 | 29.98498 | -95.33627 | 105 ft | 0 kts | 219° |
| 2026-05-01 10:07 | 29.98488 | -95.33637 | 138 ft | 7 kts | 220° |
| 2026-05-01 10:07 | 29.98433 | -95.33665 | 106 ft | 9 kts | 185° |
| 2026-05-01 10:08 | 29.98325 | -95.33670 | 106 ft | 0 kts | 197° |
| 2026-05-01 10:08 | 29.98314 | -95.33688 | 105 ft | 4 kts | 257° |
| 2026-05-01 10:08 | 29.98316 | -95.33721 | 106 ft | 4 kts | 274° |
| 2026-05-01 10:09 | 29.98317 | -95.33788 | 106 ft | 15 kts | 270° |
| 2026-05-01 10:09 | 29.98318 | -95.33945 | 106 ft | 21 kts | 274° |
| 2026-05-01 10:09 | 29.98371 | -95.34099 | 106 ft | 21 kts | 284° |
| 2026-05-01 10:09 | 29.98377 | -95.34262 | 106 ft | 20 kts | 270° |
| 2026-05-01 10:10 | 29.98370 | -95.34419 | 106 ft | 19 kts | 248° |
| 2026-05-01 10:10 | 29.98324 | -95.34560 | 106 ft | 19 kts | 269° |
| 2026-05-01 10:10 | 29.98325 | -95.34852 | 106 ft | 18 kts | 270° |
| 2026-05-01 10:11 | 29.98324 | -95.34990 | 106 ft | 17 kts | 269° |
| 2026-05-01 10:11 | 29.98323 | -95.35123 | 106 ft | 16 kts | 269° |
| 2026-05-01 10:11 | 29.98347 | -95.35190 | 106 ft | 7 kts | 328° |
| 2026-05-01 10:11 | 29.98392 | -95.35207 | 105 ft | 7 kts | 334° |
| 2026-05-01 10:12 | 29.98434 | -95.35234 | 106 ft | 7 kts | 331° |
| 2026-05-01 10:12 | 29.98475 | -95.35259 | 106 ft | 7 kts | 331° |
| 2026-05-01 10:12 | 29.98677 | -95.35383 | 106 ft | 19 kts | 332° |
| 2026-05-01 10:13 | 29.98791 | -95.35453 | 106 ft | 17 kts | 332° |
| 2026-05-01 10:13 | 29.98820 | -95.35501 | 106 ft | 8 kts | 270° |
| 2026-05-01 10:13 | 29.98793 | -95.35574 | 106 ft | 12 kts | 243° |
| 2026-05-01 10:14 | 29.98680 | -95.35716 | 107 ft | 13 kts | 168° |
| 2026-05-01 10:14 | 29.98574 | -95.35657 | 107 ft | 39 kts | 152° |
| 2026-05-01 10:14 | 29.98103 | -95.35368 | 106 ft | 110 kts | 152° |
| 2026-05-01 10:14 | 29.97249 | -95.34846 | 103 ft | 168 kts | 152° |
| 2026-05-01 10:15 | 29.96131 | -95.34136 | 374 ft | 195 kts | 150° |
| 2026-05-01 10:15 | 29.94869 | -95.33363 | 819 ft | 210 kts | 150° |
| 2026-05-01 10:15 | 29.94052 | -95.32177 | 1896 ft | 174 kts | 99° |
| 2026-05-01 10:15 | 29.94034 | -95.30807 | 2566 ft | 179 kts | 75° |
| 2026-05-01 10:16 | 29.94722 | -95.29503 | 2742 ft | 206 kts | 45° |
| 2026-05-01 10:16 | 29.96085 | -95.28751 | 3065 ft | 226 kts | 18° |
| 2026-05-01 10:16 | 29.99360 | -95.28060 | 3849 ft | 249 kts | 12° |
| 2026-05-01 10:17 | 30.01091 | -95.27746 | 4386 ft | 253 kts | 11° |
| 2026-05-01 10:17 | 30.04798 | -95.27052 | 5220 ft | 283 kts | 11° |
| 2026-05-01 10:17 | 30.06733 | -95.26681 | 6046 ft | 283 kts | 11° |
| 2026-05-01 10:18 | 30.10694 | -95.25914 | 7415 ft | 291 kts | 9° |
| 2026-05-01 10:18 | 30.12700 | -95.25518 | 8132 ft | 293 kts | 9° |
| 2026-05-01 10:18 | 30.14723 | -95.25118 | 8866 ft | 295 kts | 8° |
| 2026-05-01 10:19 | 30.16751 | -95.24716 | 9632 ft | 297 kts | 8° |
| 2026-05-01 10:19 | 30.18811 | -95.24307 | 10241 ft | 304 kts | 7° |
| 2026-05-01 10:19 | 30.20972 | -95.23879 | 10408 ft | 326 kts | 8° |
| 2026-05-01 10:20 | 30.25672 | -95.22946 | 11086 ft | 353 kts | 8° |
| 2026-05-01 10:20 | 30.28079 | -95.22466 | 11699 ft | 357 kts | 7° |
| 2026-05-01 10:20 | 30.30543 | -95.21812 | 12348 ft | 361 kts | 15° |
| 2026-05-01 10:20 | 30.32910 | -95.20894 | 12949 ft | 366 kts | 17° |
| 2026-05-01 10:21 | 30.35321 | -95.19905 | 13523 ft | 370 kts | 17° |
| 2026-05-01 10:21 | 30.40237 | -95.17933 | 14585 ft | 377 kts | 15° |
| 2026-05-01 10:21 | 30.41923 | -95.17273 | 14944 ft | 379 kts | 15° |
| 2026-05-01 10:22 | 30.45838 | -95.15634 | 15757 ft | 388 kts | 21° |
| 2026-05-01 10:22 | 30.50664 | -95.12646 | 16764 ft | 398 kts | 25° |
| 2026-05-01 10:23 | 30.53094 | -95.11088 | 17270 ft | 401 kts | 24° |
| 2026-05-01 10:23 | 30.58052 | -95.07992 | 18236 ft | 408 kts | 23° |
| 2026-05-01 10:23 | 30.60566 | -95.06429 | 18654 ft | 412 kts | 24° |
| 2026-05-01 10:24 | 30.65604 | -95.03204 | 19499 ft | 419 kts | 24° |
| 2026-05-01 10:24 | 30.70747 | -94.99880 | 20348 ft | 425 kts | 24° |
| 2026-05-01 10:25 | 30.75959 | -94.96515 | 21195 ft | 431 kts | 23° |
| 2026-05-01 10:25 | 30.81250 | -94.93101 | 22010 ft | 438 kts | 23° |
| 2026-05-01 10:26 | 30.83884 | -94.91401 | 22437 ft | 440 kts | 23° |
| 2026-05-01 10:26 | 30.86569 | -94.89667 | 22820 ft | 443 kts | 23° |
| 2026-05-01 10:26 | 30.91998 | -94.86158 | 23561 ft | 449 kts | 22° |
| 2026-05-01 10:27 | 30.97491 | -94.82601 | 24232 ft | 454 kts | 22° |
| 2026-05-01 10:27 | 31.03044 | -94.78999 | 24904 ft | 459 kts | 22° |
| 2026-05-01 10:28 | 31.05844 | -94.77182 | 25250 ft | 461 kts | 22° |
| 2026-05-01 10:28 | 31.11451 | -94.73538 | 25904 ft | 466 kts | 22° |
| 2026-05-01 10:28 | 31.14292 | -94.71691 | 26214 ft | 468 kts | 22° |
| 2026-05-01 10:29 | 31.20022 | -94.67963 | 26794 ft | 473 kts | 22° |
| 2026-05-01 10:29 | 31.22902 | -94.66089 | 27086 ft | 476 kts | 22° |
| 2026-05-01 10:30 | 31.28706 | -94.62303 | 27681 ft | 479 kts | 21° |
| 2026-05-01 10:30 | 31.34561 | -94.58478 | 28219 ft | 484 kts | 21° |
| 2026-05-01 10:31 | 31.40463 | -94.54614 | 28779 ft | 488 kts | 21° |
| 2026-05-01 10:31 | 31.46407 | -94.50719 | 29316 ft | 492 kts | 21° |
| 2026-05-01 10:32 | 31.52380 | -94.46732 | 29873 ft | 496 kts | 22° |
| 2026-05-01 10:32 | 31.54354 | -94.45364 | 30039 ft | 498 kts | 22° |
| 2026-05-01 10:32 | 31.60329 | -94.41171 | 30463 ft | 502 kts | 22° |
| 2026-05-01 10:33 | 31.66311 | -94.36963 | 31142 ft | 499 kts | 22° |
| 2026-05-01 10:33 | 31.72275 | -94.32787 | 31732 ft | 499 kts | 21° |
| 2026-05-01 10:34 | 31.75255 | -94.30704 | 32063 ft | 497 kts | 21° |
| 2026-05-01 10:34 | 31.78192 | -94.28649 | 32409 ft | 496 kts | 21° |
| 2026-05-01 10:34 | 31.81157 | -94.26576 | 32694 ft | 496 kts | 21° |
| 2026-05-01 10:35 | 31.87083 | -94.22426 | 33285 ft | 495 kts | 21° |
| 2026-05-01 10:35 | 31.90039 | -94.20352 | 33617 ft | 494 kts | 21° |
| 2026-05-01 10:35 | 31.92991 | -94.18279 | 33879 ft | 494 kts | 21° |
| 2026-05-01 10:35 | 31.95942 | -94.16207 | 34099 ft | 494 kts | 20° |
| 2026-05-01 10:36 | 32.01833 | -94.12063 | 34594 ft | 492 kts | 20° |
| 2026-05-01 10:36 | 32.04778 | -94.09989 | 34793 ft | 492 kts | 20° |
| 2026-05-01 10:36 | 32.07718 | -94.07918 | 34964 ft | 492 kts | 20° |
| 2026-05-01 10:37 | 32.10646 | -94.05853 | 34998 ft | 491 kts | 20° |
| 2026-05-01 10:37 | 32.19421 | -93.99657 | 35016 ft | 492 kts | 20° |
| 2026-05-01 10:38 | 32.25298 | -93.95500 | 35034 ft | 493 kts | 20° |
| 2026-05-01 10:38 | 32.31197 | -93.91319 | 35031 ft | 493 kts | 20° |
| 2026-05-01 10:39 | 32.37079 | -93.87142 | 35031 ft | 493 kts | 20° |
| 2026-05-01 10:39 | 32.42958 | -93.82962 | 35031 ft | 492 kts | 20° |
| 2026-05-01 10:40 | 32.48833 | -93.78777 | 35033 ft | 491 kts | 20° |
| 2026-05-01 10:40 | 32.54680 | -93.74607 | 35044 ft | 490 kts | 19° |
| 2026-05-01 10:41 | 32.60511 | -93.70442 | 35048 ft | 488 kts | 19° |
| 2026-05-01 10:42 | 32.69185 | -93.64235 | 35041 ft | 486 kts | 19° |
| 2026-05-01 10:42 | 32.74973 | -93.60086 | 35034 ft | 484 kts | 19° |
| 2026-05-01 10:43 | 32.80734 | -93.55949 | 35032 ft | 483 kts | 19° |
| 2026-05-01 10:43 | 32.86476 | -93.51819 | 35032 ft | 482 kts | 19° |
| 2026-05-01 10:44 | 32.92213 | -93.47687 | 35035 ft | 481 kts | 19° |
| 2026-05-01 10:44 | 32.97891 | -93.43592 | 35039 ft | 480 kts | 19° |
| 2026-05-01 10:45 | 33.03627 | -93.39537 | 35038 ft | 478 kts | 18° |
| 2026-05-01 10:45 | 33.09403 | -93.35606 | 35040 ft | 477 kts | 17° |
| 2026-05-01 10:46 | 33.15178 | -93.31681 | 35037 ft | 478 kts | 18° |
| 2026-05-01 10:46 | 33.20950 | -93.27730 | 35043 ft | 478 kts | 18° |
| 2026-05-01 10:47 | 33.26727 | -93.23755 | 35040 ft | 479 kts | 18° |
| 2026-05-01 10:47 | 33.32476 | -93.19790 | 35030 ft | 480 kts | 18° |
| 2026-05-01 10:48 | 33.38268 | -93.15789 | 35054 ft | 481 kts | 18° |
| 2026-05-01 10:48 | 33.44077 | -93.11772 | 35044 ft | 482 kts | 18° |
| 2026-05-01 10:49 | 33.49883 | -93.07750 | 35058 ft | 482 kts | 18° |
| 2026-05-01 10:49 | 33.55697 | -93.03717 | 35062 ft | 482 kts | 18° |
| 2026-05-01 10:50 | 33.61500 | -92.99683 | 35068 ft | 482 kts | 18° |
| 2026-05-01 10:50 | 33.67316 | -92.95635 | 35069 ft | 481 kts | 18° |
| 2026-05-01 10:51 | 33.73064 | -92.91628 | 35071 ft | 480 kts | 18° |
| 2026-05-01 10:51 | 33.78840 | -92.87596 | 35067 ft | 479 kts | 18° |
| 2026-05-01 10:52 | 33.82356 | -92.85138 | 35067 ft | 479 kts | 18° |
| 2026-05-01 10:52 | 33.88113 | -92.81109 | 35065 ft | 478 kts | 17° |
| 2026-05-01 10:53 | 33.93858 | -92.77083 | 35066 ft | 478 kts | 17° |
| 2026-05-01 10:53 | 33.99574 | -92.73070 | 35062 ft | 477 kts | 17° |
| 2026-05-01 10:54 | 34.05314 | -92.69034 | 35073 ft | 477 kts | 17° |
| 2026-05-01 10:54 | 34.11046 | -92.64997 | 35061 ft | 477 kts | 17° |
| 2026-05-01 10:55 | 34.16783 | -92.60951 | 35067 ft | 477 kts | 17° |
| 2026-05-01 10:55 | 34.22512 | -92.56903 | 35068 ft | 477 kts | 17° |
| 2026-05-01 10:56 | 34.28205 | -92.52874 | 35077 ft | 477 kts | 17° |
| 2026-05-01 10:56 | 34.33930 | -92.48816 | 35076 ft | 477 kts | 17° |
| 2026-05-01 10:57 | 34.39651 | -92.44755 | 35083 ft | 476 kts | 17° |
| 2026-05-01 10:57 | 34.45366 | -92.40691 | 35078 ft | 476 kts | 17° |
| 2026-05-01 10:58 | 34.51074 | -92.36625 | 35092 ft | 476 kts | 16° |
| 2026-05-01 10:58 | 34.56779 | -92.32555 | 35091 ft | 475 kts | 16° |
| 2026-05-01 10:59 | 34.62474 | -92.28485 | 35095 ft | 475 kts | 16° |
| 2026-05-01 10:59 | 34.68169 | -92.24409 | 35099 ft | 475 kts | 16° |
| 2026-05-01 11:00 | 34.73820 | -92.20358 | 35102 ft | 474 kts | 16° |
| 2026-05-01 11:00 | 34.79493 | -92.16230 | 35089 ft | 482 kts | 20° |
| 2026-05-01 11:00 | 34.82192 | -92.13682 | 35069 ft | 499 kts | 30° |
| 2026-05-01 11:01 | 34.84647 | -92.10579 | 35102 ft | 510 kts | 36° |
| 2026-05-01 11:01 | 34.89326 | -92.04037 | 35100 ft | 513 kts | 37° |
| 2026-05-01 11:02 | 34.93982 | -91.97432 | 35092 ft | 513 kts | 37° |
| 2026-05-01 11:02 | 34.98678 | -91.90879 | 35081 ft | 513 kts | 36° |
| 2026-05-01 11:03 | 35.03370 | -91.84394 | 35099 ft | 512 kts | 36° |
| 2026-05-01 11:03 | 35.08085 | -91.77880 | 35110 ft | 512 kts | 35° |
| 2026-05-01 11:04 | 35.12796 | -91.71354 | 35113 ft | 512 kts | 35° |
| 2026-05-01 11:04 | 35.17502 | -91.64818 | 35119 ft | 512 kts | 35° |
| 2026-05-01 11:05 | 35.22208 | -91.58266 | 35115 ft | 513 kts | 35° |
| 2026-05-01 11:05 | 35.26918 | -91.51698 | 35111 ft | 514 kts | 35° |
| 2026-05-01 11:06 | 35.31642 | -91.45097 | 35111 ft | 515 kts | 35° |
| 2026-05-01 11:06 | 35.36358 | -91.38495 | 35112 ft | 515 kts | 35° |
| 2026-05-01 11:07 | 35.43443 | -91.28551 | 35123 ft | 517 kts | 35° |
| 2026-05-01 11:07 | 35.48169 | -91.21904 | 35128 ft | 517 kts | 35° |
| 2026-05-01 11:08 | 35.52899 | -91.15235 | 35127 ft | 518 kts | 34° |
| 2026-05-01 11:09 | 35.59971 | -91.05241 | 35128 ft | 519 kts | 34° |
| 2026-05-01 11:09 | 35.64699 | -90.98543 | 35117 ft | 518 kts | 34° |
| 2026-05-01 11:10 | 35.71787 | -90.88476 | 35105 ft | 518 kts | 34° |
| 2026-05-01 11:10 | 35.76470 | -90.81808 | 35110 ft | 517 kts | 35° |
| 2026-05-01 11:11 | 35.81173 | -90.75100 | 35113 ft | 516 kts | 35° |
| 2026-05-01 11:11 | 35.85860 | -90.68403 | 35114 ft | 516 kts | 35° |
| 2026-05-01 11:12 | 35.90545 | -90.61694 | 35107 ft | 515 kts | 35° |
| 2026-05-01 11:12 | 35.95213 | -90.54997 | 35102 ft | 514 kts | 35° |
| 2026-05-01 11:13 | 35.99876 | -90.48293 | 35095 ft | 514 kts | 35° |
| 2026-05-01 11:13 | 36.04500 | -90.41631 | 35093 ft | 513 kts | 36° |
| 2026-05-01 11:14 | 36.09151 | -90.34920 | 35086 ft | 513 kts | 36° |
| 2026-05-01 11:14 | 36.13790 | -90.28211 | 35076 ft | 513 kts | 36° |
| 2026-05-01 11:15 | 36.18435 | -90.21480 | 35081 ft | 514 kts | 36° |
| 2026-05-01 11:15 | 36.23072 | -90.14745 | 35082 ft | 514 kts | 36° |
| 2026-05-01 11:16 | 36.27698 | -90.08040 | 35085 ft | 513 kts | 35° |
| 2026-05-01 11:16 | 36.32482 | -90.01513 | 35084 ft | 510 kts | 33° |
| 2026-05-01 11:17 | 36.37312 | -89.95053 | 35085 ft | 511 kts | 34° |
| 2026-05-01 11:17 | 36.42128 | -89.88536 | 35103 ft | 512 kts | 34° |
| 2026-05-01 11:18 | 36.46927 | -89.81981 | 35110 ft | 513 kts | 34° |
| 2026-05-01 11:18 | 36.50924 | -89.76507 | 35106 ft | 514 kts | 34° |
| 2026-05-01 11:19 | 36.55726 | -89.69923 | 35102 ft | 514 kts | 35° |
| 2026-05-01 11:19 | 36.60539 | -89.63313 | 35090 ft | 514 kts | 35° |
| 2026-05-01 11:20 | 36.65307 | -89.56754 | 35082 ft | 515 kts | 35° |
| 2026-05-01 11:20 | 36.70110 | -89.50133 | 35080 ft | 514 kts | 35° |
| 2026-05-01 11:21 | 36.74915 | -89.43493 | 35079 ft | 514 kts | 35° |
| 2026-05-01 11:21 | 36.79700 | -89.36866 | 35079 ft | 514 kts | 35° |
| 2026-05-01 11:22 | 36.82677 | -89.32738 | 35076 ft | 514 kts | 36° |
| 2026-05-01 11:22 | 36.87452 | -89.26104 | 35084 ft | 513 kts | 36° |
| 2026-05-01 11:23 | 36.92221 | -89.19465 | 35088 ft | 513 kts | 36° |
| 2026-05-01 11:23 | 36.96988 | -89.12816 | 35099 ft | 513 kts | 36° |
| 2026-05-01 11:24 | 37.01744 | -89.06168 | 35100 ft | 513 kts | 36° |
| 2026-05-01 11:25 | 37.08857 | -88.96202 | 35075 ft | 514 kts | 36° |
| 2026-05-01 11:25 | 37.15990 | -88.86176 | 35075 ft | 514 kts | 36° |
| 2026-05-01 11:26 | 37.23124 | -88.76117 | 35066 ft | 514 kts | 37° |
| 2026-05-01 11:27 | 37.27876 | -88.69401 | 35073 ft | 515 kts | 37° |
| 2026-05-01 11:27 | 37.32625 | -88.62674 | 35078 ft | 515 kts | 37° |
| 2026-05-01 11:28 | 37.37348 | -88.55970 | 35079 ft | 515 kts | 37° |
| 2026-05-01 11:28 | 37.42087 | -88.49229 | 35082 ft | 515 kts | 37° |
| 2026-05-01 11:29 | 37.49228 | -88.39045 | 35073 ft | 516 kts | 37° |
| 2026-05-01 11:30 | 37.56347 | -88.28862 | 35068 ft | 516 kts | 37° |
| 2026-05-01 11:30 | 37.61051 | -88.22115 | 35068 ft | 516 kts | 37° |
| 2026-05-01 11:31 | 37.65786 | -88.15309 | 35067 ft | 515 kts | 38° |
| 2026-05-01 11:31 | 37.70520 | -88.08490 | 35072 ft | 515 kts | 38° |
| 2026-05-01 11:32 | 37.75239 | -88.01679 | 35077 ft | 515 kts | 38° |
| 2026-05-01 11:32 | 37.79957 | -87.94854 | 35063 ft | 515 kts | 38° |
| 2026-05-01 11:33 | 37.84641 | -87.88064 | 35064 ft | 515 kts | 38° |
| 2026-05-01 11:33 | 37.89352 | -87.81221 | 35050 ft | 515 kts | 38° |
| 2026-05-01 11:34 | 37.94430 | -87.75075 | 35055 ft | 492 kts | 22° |
| 2026-05-01 11:34 | 37.97295 | -87.72820 | 35058 ft | 480 kts | 15° |
| 2026-05-01 11:34 | 38.00236 | -87.70787 | 35058 ft | 483 kts | 14° |
| 2026-05-01 11:35 | 38.06119 | -87.66751 | 35054 ft | 484 kts | 15° |
| 2026-05-01 11:35 | 38.12040 | -87.62621 | 35055 ft | 485 kts | 15° |
| 2026-05-01 11:36 | 38.17947 | -87.58444 | 35051 ft | 486 kts | 15° |
| 2026-05-01 11:36 | 38.23855 | -87.54243 | 35050 ft | 486 kts | 16° |
| 2026-05-01 11:36 | 38.26794 | -87.52184 | 34583 ft | 476 kts | 29° |
| 2026-05-01 11:37 | 38.29645 | -87.50122 | 34968 ft | 471 kts | 13° |
| 2026-05-01 11:37 | 38.35390 | -87.46016 | 35032 ft | 477 kts | 13° |
| 2026-05-01 11:38 | 38.41204 | -87.41888 | 35046 ft | 486 kts | 13° |
| 2026-05-01 11:38 | 38.47158 | -87.37642 | 35037 ft | 494 kts | 14° |
| 2026-05-01 11:39 | 38.53181 | -87.33319 | 35039 ft | 497 kts | 14° |
| 2026-05-01 11:39 | 38.59211 | -87.28974 | 35041 ft | 498 kts | 14° |
| 2026-05-01 11:40 | 38.65243 | -87.24626 | 35038 ft | 497 kts | 14° |
| 2026-05-01 11:40 | 38.71277 | -87.20273 | 35039 ft | 497 kts | 15° |
| 2026-05-01 11:41 | 38.77259 | -87.15951 | 35037 ft | 495 kts | 15° |
| 2026-05-01 11:41 | 38.83257 | -87.11609 | 35031 ft | 493 kts | 15° |
| 2026-05-01 11:42 | 38.89214 | -87.07288 | 35029 ft | 491 kts | 15° |
| 2026-05-01 11:42 | 38.95153 | -87.02973 | 35019 ft | 489 kts | 15° |
| 2026-05-01 11:43 | 39.01065 | -86.98669 | 35003 ft | 487 kts | 15° |
| 2026-05-01 11:43 | 39.06909 | -86.94408 | 35005 ft | 485 kts | 15° |
| 2026-05-01 11:44 | 39.15702 | -86.87981 | 35008 ft | 484 kts | 15° |
| 2026-05-01 11:44 | 39.21552 | -86.83694 | 35009 ft | 483 kts | 15° |
| 2026-05-01 11:45 | 39.27399 | -86.79402 | 35008 ft | 483 kts | 15° |
| 2026-05-01 11:45 | 39.33254 | -86.75096 | 35009 ft | 484 kts | 15° |
| 2026-05-01 11:46 | 39.39086 | -86.70798 | 35005 ft | 485 kts | 15° |
| 2026-05-01 11:46 | 39.44962 | -86.66458 | 35012 ft | 487 kts | 16° |
| 2026-05-01 11:47 | 39.50855 | -86.62098 | 35007 ft | 488 kts | 16° |
| 2026-05-01 11:47 | 39.56733 | -86.57738 | 35006 ft | 489 kts | 16° |
| 2026-05-01 11:48 | 39.62666 | -86.53329 | 34989 ft | 490 kts | 16° |
| 2026-05-01 11:48 | 39.68591 | -86.48918 | 34990 ft | 491 kts | 16° |
| 2026-05-01 11:49 | 39.74530 | -86.44486 | 34987 ft | 492 kts | 16° |
| 2026-05-01 11:49 | 39.80433 | -86.40072 | 34994 ft | 492 kts | 16° |
| 2026-05-01 11:50 | 39.86367 | -86.35622 | 34989 ft | 493 kts | 17° |
| 2026-05-01 11:50 | 39.89233 | -86.33032 | 34986 ft | 508 kts | 26° |
| 2026-05-01 11:50 | 39.91959 | -86.30058 | 34995 ft | 513 kts | 29° |
| 2026-05-01 11:51 | 39.97312 | -86.23884 | 34982 ft | 512 kts | 30° |
| 2026-05-01 11:51 | 40.02609 | -86.17969 | 34980 ft | 509 kts | 28° |
| 2026-05-01 11:52 | 40.05958 | -86.14303 | 34974 ft | 509 kts | 28° |
| 2026-05-01 11:52 | 40.11408 | -86.08432 | 34979 ft | 506 kts | 27° |
| 2026-05-01 11:53 | 40.16876 | -86.02681 | 34977 ft | 504 kts | 27° |
| 2026-05-01 11:53 | 40.22299 | -85.96964 | 35062 ft | 503 kts | 28° |
| 2026-05-01 11:54 | 40.27734 | -85.91196 | 35111 ft | 502 kts | 28° |
| 2026-05-01 11:54 | 40.33146 | -85.85428 | 35171 ft | 501 kts | 28° |
| 2026-05-01 11:55 | 40.38558 | -85.79648 | 35211 ft | 501 kts | 29° |
| 2026-05-01 11:55 | 40.43963 | -85.73865 | 34965 ft | 500 kts | 29° |
| 2026-05-01 11:56 | 40.49327 | -85.68113 | 34964 ft | 500 kts | 30° |
| 2026-05-01 11:56 | 40.54705 | -85.62335 | 34962 ft | 499 kts | 30° |
| 2026-05-01 11:57 | 40.59171 | -85.57526 | 34964 ft | 498 kts | 30° |
| 2026-05-01 11:57 | 40.65434 | -85.50769 | 34964 ft | 498 kts | 30° |
| 2026-05-01 11:58 | 40.70690 | -85.44950 | 34977 ft | 490 kts | 33° |
| 2026-05-01 11:59 | 40.78268 | -85.35960 | 34702 ft | 490 kts | 33° |
| 2026-05-01 11:59 | 40.80803 | -85.32970 | 34294 ft | 488 kts | 33° |
| 2026-05-01 11:59 | 40.83334 | -85.29994 | 33793 ft | 485 kts | 33° |
| 2026-05-01 12:00 | 40.88270 | -85.23984 | 32758 ft | 483 kts | 40° |
| 2026-05-01 12:00 | 40.90503 | -85.20676 | 32298 ft | 481 kts | 42° |
| 2026-05-01 12:00 | 40.94780 | -85.13938 | 31345 ft | 474 kts | 43° |
| 2026-05-01 12:01 | 40.96888 | -85.10608 | 30895 ft | 470 kts | 43° |
| 2026-05-01 12:01 | 40.98996 | -85.07313 | 30439 ft | 467 kts | 43° |
| 2026-05-01 12:01 | 41.01095 | -85.04059 | 29961 ft | 463 kts | 43° |
| 2026-05-01 12:01 | 41.03187 | -85.00832 | 29414 ft | 460 kts | 43° |
| 2026-05-01 12:02 | 41.05232 | -84.97679 | 28940 ft | 455 kts | 43° |
| 2026-05-01 12:02 | 41.07288 | -84.94507 | 28491 ft | 450 kts | 43° |
| 2026-05-01 12:02 | 41.09317 | -84.91374 | 28029 ft | 445 kts | 43° |
| 2026-05-01 12:02 | 41.11325 | -84.88267 | 27576 ft | 441 kts | 44° |
| 2026-05-01 12:03 | 41.13309 | -84.85195 | 27132 ft | 437 kts | 44° |
| 2026-05-01 12:03 | 41.15273 | -84.82149 | 26699 ft | 433 kts | 44° |
| 2026-05-01 12:03 | 41.17244 | -84.79161 | 26271 ft | 427 kts | 41° |
| 2026-05-01 12:03 | 41.19282 | -84.76319 | 25871 ft | 422 kts | 40° |
| 2026-05-01 12:04 | 41.21338 | -84.73557 | 25442 ft | 418 kts | 39° |
| 2026-05-01 12:04 | 41.23380 | -84.70829 | 25018 ft | 415 kts | 40° |
| 2026-05-01 12:04 | 41.25136 | -84.68466 | 24656 ft | 413 kts | 40° |
| 2026-05-01 12:05 | 41.27097 | -84.65806 | 24243 ft | 410 kts | 40° |
| 2026-05-01 12:05 | 41.31035 | -84.60419 | 23376 ft | 406 kts | 41° |
| 2026-05-01 12:05 | 41.32991 | -84.57736 | 22916 ft | 403 kts | 41° |
| 2026-05-01 12:06 | 41.34927 | -84.55080 | 22577 ft | 396 kts | 41° |
| 2026-05-01 12:06 | 41.36834 | -84.52465 | 22265 ft | 390 kts | 41° |
| 2026-05-01 12:06 | 41.38079 | -84.50758 | 22070 ft | 386 kts | 41° |
| 2026-05-01 12:06 | 41.39943 | -84.48203 | 21758 ft | 383 kts | 41° |
| 2026-05-01 12:07 | 41.41792 | -84.45665 | 21445 ft | 380 kts | 41° |
| 2026-05-01 12:07 | 41.43644 | -84.43166 | 21140 ft | 376 kts | 37° |
| 2026-05-01 12:07 | 41.45682 | -84.41055 | 20843 ft | 367 kts | 27° |
| 2026-05-01 12:07 | 41.47833 | -84.39246 | 20579 ft | 363 kts | 26° |
| 2026-05-01 12:08 | 41.49980 | -84.37490 | 20292 ft | 362 kts | 25° |
| 2026-05-01 12:08 | 41.52080 | -84.35773 | 20012 ft | 360 kts | 26° |
| 2026-05-01 12:08 | 41.54243 | -84.33991 | 19727 ft | 359 kts | 26° |
| 2026-05-01 12:08 | 41.56364 | -84.32229 | 19438 ft | 359 kts | 26° |
| 2026-05-01 12:09 | 41.58482 | -84.30460 | 19163 ft | 359 kts | 27° |
| 2026-05-01 12:09 | 41.60596 | -84.28687 | 18874 ft | 358 kts | 27° |
| 2026-05-01 12:09 | 41.62705 | -84.26914 | 18591 ft | 358 kts | 27° |
| 2026-05-01 12:09 | 41.64814 | -84.25140 | 18310 ft | 358 kts | 27° |
| 2026-05-01 12:10 | 41.66927 | -84.23360 | 17987 ft | 358 kts | 27° |
| 2026-05-01 12:10 | 41.71106 | -84.19836 | 17389 ft | 356 kts | 27° |
| 2026-05-01 12:10 | 41.73195 | -84.18063 | 17102 ft | 356 kts | 30° |
| 2026-05-01 12:11 | 41.76772 | -84.13449 | 16555 ft | 358 kts | 45° |
| 2026-05-01 12:11 | 41.78433 | -84.10971 | 16274 ft | 357 kts | 45° |
| 2026-05-01 12:11 | 41.80090 | -84.08503 | 15990 ft | 355 kts | 45° |
| 2026-05-01 12:12 | 41.81747 | -84.06058 | 15704 ft | 353 kts | 45° |
| 2026-05-01 12:12 | 41.83396 | -84.03647 | 15415 ft | 349 kts | 45° |
| 2026-05-01 12:12 | 41.85038 | -84.01266 | 15116 ft | 345 kts | 45° |
| 2026-05-01 12:12 | 41.86659 | -83.98920 | 14852 ft | 340 kts | 45° |
| 2026-05-01 12:13 | 41.88260 | -83.96601 | 14584 ft | 337 kts | 45° |
| 2026-05-01 12:13 | 41.89848 | -83.94301 | 14317 ft | 334 kts | 45° |
| 2026-05-01 12:13 | 41.91422 | -83.92020 | 14059 ft | 332 kts | 45° |
| 2026-05-01 12:13 | 41.92986 | -83.89754 | 13790 ft | 330 kts | 45° |
| 2026-05-01 12:14 | 41.94542 | -83.87496 | 13505 ft | 328 kts | 45° |
| 2026-05-01 12:14 | 41.96086 | -83.85256 | 13219 ft | 326 kts | 45° |
| 2026-05-01 12:14 | 41.97624 | -83.83029 | 12947 ft | 323 kts | 45° |
| 2026-05-01 12:14 | 41.99152 | -83.80839 | 12701 ft | 321 kts | 45° |
| 2026-05-01 12:15 | 42.00644 | -83.78706 | 12437 ft | 319 kts | 45° |
| 2026-05-01 12:15 | 42.02175 | -83.76516 | 12183 ft | 317 kts | 45° |
| 2026-05-01 12:15 | 42.03680 | -83.74359 | 11948 ft | 315 kts | 45° |
| 2026-05-01 12:15 | 42.04178 | -83.73646 | 11857 ft | 314 kts | 45° |
| 2026-05-01 12:16 | 42.05205 | -83.72172 | 11679 ft | 314 kts | 45° |
| 2026-05-01 12:16 | 42.06695 | -83.70031 | 11425 ft | 312 kts | 45° |
| 2026-05-01 12:16 | 42.08156 | -83.67932 | 11191 ft | 311 kts | 45° |
| 2026-05-01 12:16 | 42.09501 | -83.65616 | 10920 ft | 311 kts | 63° |
| 2026-05-01 12:17 | 42.10172 | -83.62916 | 10797 ft | 306 kts | 76° |
| 2026-05-01 12:17 | 42.10637 | -83.60132 | 10639 ft | 304 kts | 78° |
| 2026-05-01 12:17 | 42.11072 | -83.57345 | 10482 ft | 305 kts | 78° |
| 2026-05-01 12:17 | 42.11510 | -83.54539 | 10323 ft | 308 kts | 77° |
| 2026-05-01 12:18 | 42.11957 | -83.51716 | 10161 ft | 308 kts | 77° |
| 2026-05-01 12:18 | 42.12407 | -83.48914 | 9984 ft | 301 kts | 77° |
| 2026-05-01 12:18 | 42.12848 | -83.46195 | 9819 ft | 293 kts | 77° |
| 2026-05-01 12:18 | 42.13281 | -83.43534 | 9646 ft | 287 kts | 77° |
| 2026-05-01 12:19 | 42.13707 | -83.40926 | 9507 ft | 283 kts | 77° |
| 2026-05-01 12:19 | 42.14127 | -83.38354 | 9364 ft | 284 kts | 77° |
| 2026-05-01 12:19 | 42.14558 | -83.35714 | 9212 ft | 286 kts | 77° |
| 2026-05-01 12:19 | 42.14983 | -83.33112 | 9065 ft | 287 kts | 77° |
| 2026-05-01 12:20 | 42.15410 | -83.30493 | 8903 ft | 286 kts | 77° |
| 2026-05-01 12:20 | 42.15834 | -83.27878 | 8753 ft | 284 kts | 77° |
| 2026-05-01 12:20 | 42.16295 | -83.25299 | 8597 ft | 282 kts | 68° |
| 2026-05-01 12:20 | 42.17345 | -83.23147 | 8496 ft | 273 kts | 41° |
| 2026-05-01 12:21 | 42.18865 | -83.21709 | 8347 ft | 261 kts | 27° |
| 2026-05-01 12:21 | 42.20415 | -83.20516 | 8200 ft | 253 kts | 27° |
| 2026-05-01 12:21 | 42.21927 | -83.19350 | 8057 ft | 246 kts | 27° |
| 2026-05-01 12:21 | 42.23392 | -83.18221 | 7957 ft | 239 kts | 26° |
| 2026-05-01 12:22 | 42.24835 | -83.17160 | 7658 ft | 239 kts | 26° |
| 2026-05-01 12:22 | 42.26287 | -83.16102 | 7399 ft | 236 kts | 26° |
| 2026-05-01 12:22 | 42.27726 | -83.15048 | 7138 ft | 234 kts | 27° |
| 2026-05-01 12:22 | 42.29153 | -83.13998 | 6881 ft | 232 kts | 27° |
| 2026-05-01 12:23 | 42.30559 | -83.12961 | 6635 ft | 229 kts | 27° |
| 2026-05-01 12:23 | 42.31953 | -83.11932 | 6378 ft | 227 kts | 27° |
| 2026-05-01 12:23 | 42.33336 | -83.10958 | 6159 ft | 222 kts | 22° |
| 2026-05-01 12:23 | 42.34820 | -83.10493 | 5891 ft | 218 kts | 1° |
| 2026-05-01 12:24 | 42.36306 | -83.10788 | 5646 ft | 216 kts | 342° |
| 2026-05-01 12:24 | 42.37649 | -83.11693 | 5396 ft | 216 kts | 324° |
| 2026-05-01 12:24 | 42.38706 | -83.13124 | 5166 ft | 216 kts | 306° |
| 2026-05-01 12:24 | 42.39369 | -83.14947 | 4922 ft | 217 kts | 287° |
| 2026-05-01 12:25 | 42.39561 | -83.16982 | 4704 ft | 221 kts | 268° |
| 2026-05-01 12:25 | 42.38426 | -83.20836 | 4206 ft | 228 kts | 229° |
| 2026-05-01 12:25 | 42.37205 | -83.22182 | 3970 ft | 227 kts | 211° |
| 2026-05-01 12:26 | 42.35839 | -83.23220 | 3707 ft | 224 kts | 208° |
| 2026-05-01 12:26 | 42.33154 | -83.25168 | 3146 ft | 213 kts | 208° |
| 2026-05-01 12:26 | 42.31881 | -83.26103 | 2849 ft | 203 kts | 209° |
| 2026-05-01 12:27 | 42.30672 | -83.26993 | 2593 ft | 192 kts | 208° |
| 2026-05-01 12:27 | 42.28463 | -83.28621 | 2116 ft | 169 kts | 208° |
| 2026-05-01 12:28 | 42.26548 | -83.30031 | 1705 ft | 153 kts | 209° |
| 2026-05-01 12:28 | 42.25602 | -83.30728 | 1496 ft | 153 kts | 210° |
| 2026-05-01 12:28 | 42.23784 | -83.32068 | 1106 ft | 147 kts | 210° |
| 2026-05-01 12:29 | 42.22901 | -83.32735 | 945 ft | 146 kts | 210° |
| 2026-05-01 12:29 | 42.21986 | -83.33402 | 714 ft | 152 kts | 209° |
| 2026-05-01 12:29 | 42.20385 | -83.34576 | 648 ft | 86 kts | 208° |
| 2026-05-01 12:30 | 42.20186 | -83.34869 | 646 ft | 14 kts | 269° |
| 2026-05-01 12:30 | 42.20222 | -83.34941 | 646 ft | 9 kts | 354° |
| 2026-05-01 12:30 | 42.20279 | -83.34905 | 648 ft | 9 kts | 29° |
| 2026-05-01 12:31 | 42.20366 | -83.34841 | 647 ft | 17 kts | 28° |
| 2026-05-01 12:31 | 42.20467 | -83.34766 | 648 ft | 16 kts | 29° |
| 2026-05-01 12:31 | 42.20568 | -83.34692 | 647 ft | 19 kts | 28° |
| 2026-05-01 12:31 | 42.20694 | -83.34600 | 648 ft | 21 kts | 28° |
| 2026-05-01 12:32 | 42.20818 | -83.34508 | 646 ft | 20 kts | 28° |
| 2026-05-01 12:32 | 42.21054 | -83.34334 | 646 ft | 19 kts | 28° |
| 2026-05-01 12:32 | 42.21171 | -83.34248 | 646 ft | 23 kts | 28° |
| 2026-05-01 12:33 | 42.21333 | -83.34129 | 647 ft | 29 kts | 28° |
| 2026-05-01 12:33 | 42.21504 | -83.34002 | 646 ft | 27 kts | 28° |
| 2026-05-01 12:33 | 42.21666 | -83.33883 | 644 ft | 26 kts | 29° |
| 2026-05-01 12:33 | 42.21798 | -83.33793 | 643 ft | 17 kts | 9° |
| 2026-05-01 12:34 | 42.21849 | -83.33900 | 645 ft | 16 kts | 270° |
| 2026-05-01 12:34 | 42.21847 | -83.34045 | 646 ft | 15 kts | 268° |
| 2026-05-01 12:34 | 42.21846 | -83.34183 | 645 ft | 14 kts | 270° |
| 2026-05-01 12:34 | 42.21839 | -83.34316 | 645 ft | 14 kts | 265° |
| 2026-05-01 12:35 | 42.21834 | -83.34443 | 646 ft | 13 kts | 269° |
| 2026-05-01 12:35 | 42.21836 | -83.34577 | 646 ft | 21 kts | 272° |
| 2026-05-01 12:35 | 42.21833 | -83.34792 | 645 ft | 23 kts | 269° |
| 2026-05-01 12:35 | 42.21829 | -83.35001 | 646 ft | 22 kts | 269° |
| 2026-05-01 12:36 | 42.21826 | -83.35204 | 645 ft | 21 kts | 268° |
| 2026-05-01 12:36 | 42.21874 | -83.35332 | 645 ft | 16 kts | 356° |
| 2026-05-01 12:36 | 42.21977 | -83.35285 | 647 ft | 16 kts | 28° |
| 2026-05-01 12:36 | 42.22072 | -83.35224 | 645 ft | 15 kts | 6° |
| 2026-05-01 12:37 | 42.22164 | -83.35279 | 645 ft | 14 kts | 328° |
| 2026-05-01 12:37 | 42.22206 | -83.35288 | 645 ft | 4 kts | 39° |
| 2026-05-01 12:37 | 42.22216 | -83.35252 | 645 ft | 4 kts | 75° |
| 2026-05-01 12:37 | 42.22222 | -83.35218 | 645 ft | 3 kts | 76° |
| 2026-05-01 12:38 | 42.22224 | -83.35208 | 645 ft | 1 kts | 76° |
| 2026-05-01 12:38 | 42.22225 | -83.35205 | 645 ft | 0 kts | 76° |
| 2026-05-01 12:49 | 42.22434 | -83.34111 | 4343 ft | 195 kts | 73° |
| 2026-05-01 12:49 | 42.22856 | -83.32155 | 5467 ft | 229 kts | 72° |
| 2026-05-01 12:50 | 42.23364 | -83.29815 | 2408 ft | 302 kts | 72° |
| 2026-05-01 12:50 | 42.23922 | -83.27151 | 3349 ft | 251 kts | 74° |
| 2026-05-01 12:50 | 42.24315 | -83.25042 | 3785 ft | 226 kts | 75° |